Terminal Aerodrome Forecast
Issued by NWS

Home | Current Version | Previous Version | Text Only | Print | Product List | Glossary On
Versions: 1 2 3 4 5 6 7 8 9 10 11 12
000
FTUS44 KOUN 160520
TAFCSM
TAF
KCSM 160520Z 1606/1706 20014G20KT P6SM SKC
     FM161500 19018G27KT P6SM SKC
     FM161900 19022G32KT P6SM SCT250
     FM170000 17015G23KT P6SM BKN120=

USA.gov is the U.S. government's official web portal to all federal, state and local government web resources and services.